createdAt,value
2022-12-16T00:00:30.363Z,5.80
2022-12-16T00:02:59.060Z,8.65
2022-12-16T00:05:25.386Z,7.07
2022-12-16T00:07:51.758Z,7.78
2022-12-16T00:10:18.292Z,7.38
2022-12-16T00:12:44.604Z,5.80
2022-12-16T00:15:11.229Z,6.10
2022-12-16T00:17:37.710Z,4.82
2022-12-16T00:20:04.526Z,5.47
2022-12-16T00:22:30.860Z,5.35
2022-12-16T00:24:57.307Z,5.25
2022-12-16T00:27:23.667Z,6.25
2022-12-16T00:29:50.049Z,3.50
2022-12-16T00:32:16.419Z,3.38
2022-12-16T00:34:42.754Z,2.60
2022-12-16T00:37:11.117Z,2.30
2022-12-16T00:39:37.494Z,4.18
2022-12-16T00:42:03.832Z,2.97
2022-12-16T00:44:30.209Z,4.20
2022-12-16T00:46:56.515Z,2.58
2022-12-16T00:49:22.856Z,1.90
2022-12-16T00:51:49.580Z,5.93
2022-12-16T00:54:16.806Z,4.53
2022-12-16T00:56:43.201Z,4.63
2022-12-16T00:59:09.591Z,4.07
2022-12-16T01:01:36.033Z,5.15
2022-12-16T01:04:02.536Z,3.42
2022-12-16T01:06:28.957Z,1.95
2022-12-16T01:08:55.381Z,5.32
2022-12-16T01:11:21.862Z,3.72
2022-12-16T01:13:51.906Z,3.55
2022-12-16T01:16:18.724Z,3.60
2022-12-16T01:18:45.204Z,3.13
2022-12-16T01:21:12.500Z,2.55
2022-12-16T01:23:38.822Z,3.90
2022-12-16T01:26:06.126Z,3.85
2022-12-16T01:28:32.649Z,3.60
2022-12-16T01:31:01.958Z,7.20
2022-12-16T01:33:30.007Z,3.72
2022-12-16T01:36:01.225Z,4.43
2022-12-16T01:38:27.663Z,4.05
2022-12-16T01:40:55.211Z,3.75
2022-12-16T01:43:24.393Z,6.07
2022-12-16T01:45:51.506Z,8.52
2022-12-16T01:48:33.348Z,4.20
2022-12-16T01:51:02.734Z,4.40
2022-12-16T01:53:30.372Z,4.63
2022-12-16T01:55:58.907Z,5.47
2022-12-16T01:58:27.687Z,4.55
2022-12-16T02:00:54.610Z,8.60
2022-12-16T02:03:21.629Z,4.40
2022-12-16T02:05:48.623Z,3.90
2022-12-16T02:08:18.742Z,3.78
2022-12-16T02:10:48.229Z,4.82
2022-12-16T02:13:38.608Z,5.75
2022-12-16T02:16:16.700Z,4.97
2022-12-16T02:18:46.621Z,5.50
2022-12-16T02:21:13.581Z,7.03
2022-12-16T02:23:39.892Z,4.65
2022-12-16T02:26:15.912Z,2.72
2022-12-16T02:28:51.112Z,4.13
2022-12-16T02:31:23.349Z,4.85
2022-12-16T02:33:53.349Z,2.55
2022-12-16T02:36:19.641Z,4.35
2022-12-16T02:38:54.680Z,5.07
2022-12-16T02:41:29.886Z,4.00
2022-12-16T02:44:02.491Z,2.15
2022-12-16T02:46:30.598Z,4.05
2022-12-16T02:48:56.888Z,8.73
2022-12-16T02:51:25.160Z,1.08
2022-12-16T02:53:52.983Z,4.65
2022-12-16T02:56:38.073Z,5.90
2022-12-16T02:59:13.386Z,5.18
2022-12-16T03:02:18.646Z,3.25
2022-12-16T03:04:49.631Z,2.67
2022-12-16T03:07:17.706Z,4.70
2022-12-16T03:09:45.122Z,3.92
2022-12-16T03:12:14.256Z,5.88
2022-12-16T03:14:43.399Z,8.35
2022-12-16T03:17:10.065Z,5.35
2022-12-16T03:19:38.103Z,5.35
2022-12-16T03:22:04.758Z,6.13
2022-12-16T03:24:31.118Z,4.25
2022-12-16T03:27:18.593Z,4.60
2022-12-16T03:29:50.519Z,4.93
2022-12-16T03:32:28.389Z,5.18
2022-12-16T03:34:54.777Z,3.97
2022-12-16T03:37:22.324Z,4.53
2022-12-16T03:39:51.700Z,4.10
2022-12-16T03:42:18.171Z,4.38
2022-12-16T03:44:46.389Z,4.20
2022-12-16T03:47:15.844Z,5.40
2022-12-16T03:49:45.583Z,4.00
2022-12-16T03:52:11.973Z,2.67
2022-12-16T03:54:38.349Z,3.42
2022-12-16T03:57:04.823Z,6.05
2022-12-16T03:59:31.157Z,3.47
2022-12-16T04:01:57.844Z,2.35
2022-12-16T04:04:24.392Z,3.03
2022-12-16T04:07:10.736Z,3.40
2022-12-16T04:12:22.145Z,3.53
2022-12-16T04:15:07.271Z,2.80
2022-12-16T04:17:52.467Z,4.95
2022-12-16T04:20:37.935Z,5.70
2022-12-16T04:23:23.205Z,4.90
2022-12-16T04:25:49.782Z,6.68
2022-12-16T04:28:16.192Z,3.97
2022-12-16T04:30:42.667Z,7.10
2022-12-16T04:33:29.710Z,6.03
2022-12-16T04:36:14.748Z,4.90
2022-12-16T04:38:59.589Z,7.28
2022-12-16T04:41:44.620Z,2.05
2022-12-16T04:44:29.739Z,5.13
2022-12-16T04:47:15.191Z,7.65
2022-12-16T04:50:00.439Z,4.35
2022-12-16T04:52:45.497Z,5.07
2022-12-16T04:55:30.449Z,3.10
2022-12-16T04:58:16.683Z,5.32
2022-12-16T05:01:01.858Z,3.05
2022-12-16T05:03:47.293Z,3.50
2022-12-16T05:06:32.707Z,2.50
2022-12-16T05:09:17.904Z,4.53
2022-12-16T05:12:02.886Z,2.30
2022-12-16T05:14:48.133Z,5.93
2022-12-16T05:17:33.322Z,4.88
2022-12-16T05:20:18.512Z,2.63
2022-12-16T05:23:17.184Z,5.15
2022-12-16T05:26:02.187Z,3.63
2022-12-16T05:28:47.357Z,7.00
2022-12-16T05:31:36.963Z,5.30
2022-12-16T05:34:21.894Z,5.18
2022-12-16T05:37:06.741Z,8.32
2022-12-16T05:39:51.851Z,4.43
2022-12-16T05:42:36.837Z,5.55
2022-12-16T05:45:21.756Z,2.25
2022-12-16T05:48:07.473Z,3.50
2022-12-16T05:50:52.709Z,4.10
2022-12-16T05:53:51.441Z,2.38
2022-12-16T05:56:36.440Z,4.45
2022-12-16T05:59:21.451Z,5.57
2022-12-16T06:02:06.753Z,3.65
2022-12-16T06:04:51.607Z,4.33
2022-12-16T06:07:38.337Z,5.35
2022-12-16T06:10:23.495Z,3.45
2022-12-16T06:13:08.334Z,3.88
2022-12-16T06:15:53.661Z,3.60
2022-12-16T06:18:38.688Z,4.57
2022-12-16T06:21:23.938Z,3.78
2022-12-16T06:24:08.986Z,3.72
2022-12-16T06:26:54.193Z,3.95
2022-12-16T06:29:39.312Z,3.45
2022-12-16T06:32:24.456Z,3.90
2022-12-16T06:35:09.704Z,4.18
2022-12-16T06:37:54.857Z,4.10
2022-12-16T06:40:41.255Z,3.35
2022-12-16T06:43:26.260Z,6.32
2022-12-16T06:46:11.288Z,5.88
2022-12-16T06:48:56.163Z,3.20
2022-12-16T06:51:41.092Z,6.18
2022-12-16T06:54:25.758Z,2.42
2022-12-16T06:57:10.759Z,4.60
2022-12-16T06:59:55.868Z,4.55
2022-12-16T07:02:40.934Z,4.45
2022-12-16T07:05:25.817Z,6.22
2022-12-16T07:08:10.724Z,5.38
2022-12-16T07:11:03.406Z,6.50
2022-12-16T07:13:54.100Z,6.65
2022-12-16T07:16:39.308Z,7.32
2022-12-16T07:19:24.457Z,3.10
2022-12-16T07:22:09.256Z,6.13
2022-12-16T07:24:54.361Z,3.30
2022-12-16T07:27:39.525Z,3.13
2022-12-16T07:30:24.773Z,7.05
2022-12-16T07:33:09.946Z,9.98
2022-12-16T07:35:55.170Z,3.47
2022-12-16T07:38:40.553Z,3.63
2022-12-16T07:41:25.710Z,7.37
2022-12-16T07:44:10.755Z,7.97
2022-12-16T07:46:55.800Z,3.95
2022-12-16T07:49:41.041Z,6.00
2022-12-16T07:52:26.108Z,5.75
2022-12-16T07:55:11.207Z,3.92
2022-12-16T07:57:56.366Z,3.90
2022-12-16T08:00:41.486Z,4.32
2022-12-16T08:03:26.736Z,5.47
2022-12-16T08:06:11.546Z,5.63
2022-12-16T08:08:56.755Z,7.32
2022-12-16T08:11:41.806Z,4.60
2022-12-16T08:14:26.719Z,5.10
2022-12-16T08:17:11.906Z,5.38
2022-12-16T08:19:56.936Z,6.00
2022-12-16T08:22:42.061Z,6.45
2022-12-16T08:25:27.123Z,6.28
2022-12-16T08:28:12.859Z,6.63
2022-12-16T08:30:57.930Z,5.50
2022-12-16T08:33:42.929Z,4.35
2022-12-16T08:36:27.926Z,5.32
2022-12-16T08:39:13.148Z,7.43
2022-12-16T08:41:58.431Z,7.63
2022-12-16T08:44:43.458Z,4.20
2022-12-16T08:47:28.566Z,4.20
2022-12-16T08:50:13.660Z,5.32
2022-12-16T08:52:58.725Z,5.47
2022-12-16T08:55:43.800Z,5.28
2022-12-16T08:58:28.939Z,4.28
2022-12-16T09:01:14.030Z,5.35
2022-12-16T09:03:59.356Z,4.13
2022-12-16T09:06:44.625Z,9.88
2022-12-16T09:09:29.807Z,4.47
2022-12-16T09:12:14.885Z,5.45
2022-12-16T09:15:00.115Z,3.50
2022-12-16T09:17:44.957Z,8.75
2022-12-16T09:20:30.164Z,5.65
2022-12-16T09:23:15.175Z,8.63
2022-12-16T09:26:00.380Z,6.28
2022-12-16T09:28:45.197Z,4.93
2022-12-16T09:31:30.443Z,5.30
2022-12-16T09:34:15.344Z,6.25
2022-12-16T09:37:00.589Z,4.93
2022-12-16T09:39:45.391Z,4.00
2022-12-16T09:42:50.986Z,5.47
2022-12-16T09:45:36.222Z,6.15
2022-12-16T09:48:21.103Z,4.55
2022-12-16T09:51:05.789Z,5.88
2022-12-16T09:53:53.104Z,5.10
2022-12-16T09:56:43.955Z,4.00
2022-12-16T09:59:31.165Z,4.88
2022-12-16T10:02:16.544Z,6.88
2022-12-16T10:05:04.054Z,5.63
2022-12-16T10:10:55.025Z,8.30
2022-12-16T10:13:45.179Z,3.85
2022-12-16T10:16:48.813Z,5.50
2022-12-16T10:19:36.847Z,3.90
2022-12-16T10:22:36.701Z,6.30
2022-12-16T10:25:25.460Z,4.93
2022-12-16T10:28:12.095Z,4.28
2022-12-16T10:30:56.894Z,6.20
2022-12-16T10:33:44.200Z,5.60
2022-12-16T10:36:34.397Z,4.30
2022-12-16T10:39:21.068Z,8.65
2022-12-16T10:42:09.153Z,6.13
2022-12-16T10:44:56.340Z,3.83
2022-12-16T10:47:41.359Z,5.25
2022-12-16T10:50:30.908Z,9.45
2022-12-16T10:53:20.126Z,5.40
2022-12-16T10:56:13.353Z,9.20
2022-12-16T10:59:04.427Z,5.18
2022-12-16T11:01:49.821Z,3.92
2022-12-16T11:04:55.592Z,5.20
2022-12-16T11:07:42.051Z,7.50
2022-12-16T11:10:42.393Z,6.57
2022-12-16T11:13:34.711Z,4.00
2022-12-16T11:16:28.034Z,4.65
2022-12-16T11:19:12.835Z,5.22
2022-12-16T11:21:57.667Z,6.72
2022-12-16T11:24:43.062Z,7.93
2022-12-16T11:27:44.502Z,3.27
2022-12-16T11:30:40.422Z,3.05
2022-12-16T11:33:45.599Z,4.63
2022-12-16T11:36:36.557Z,7.80
2022-12-16T11:39:22.774Z,3.65
2022-12-16T11:42:08.797Z,6.00
2022-12-16T11:45:04.126Z,5.55
2022-12-16T11:47:55.432Z,4.82
2022-12-16T11:50:42.046Z,2.63
2022-12-16T11:53:35.959Z,4.65
2022-12-16T11:56:21.295Z,3.92
2022-12-16T11:59:07.103Z,5.32
2022-12-16T12:01:55.592Z,2.15
2022-12-16T12:04:41.381Z,6.90
2022-12-16T12:07:46.803Z,2.92
2022-12-16T12:10:51.047Z,3.58
2022-12-16T12:13:44.532Z,7.05
2022-12-16T12:16:37.593Z,2.78
2022-12-16T12:19:30.157Z,2.67
2022-12-16T12:22:27.852Z,2.15
2022-12-16T12:25:42.619Z,4.07
2022-12-16T12:28:38.851Z,2.95
2022-12-16T12:31:40.033Z,1.35
2022-12-16T12:34:43.840Z,3.78
2022-12-16T12:37:40.919Z,4.10
2022-12-16T12:41:01.561Z,3.55
2022-12-16T12:43:46.466Z,2.03
2022-12-16T12:46:39.666Z,5.65
2022-12-16T12:49:34.860Z,5.00
2022-12-16T12:52:35.302Z,2.90
2022-12-16T12:55:28.833Z,4.70
2022-12-16T12:58:14.700Z,3.40
2022-12-16T13:01:02.739Z,2.75
2022-12-16T13:03:57.219Z,2.78
2022-12-16T13:06:42.582Z,4.78
2022-12-16T13:09:43.186Z,2.10
2022-12-16T13:12:28.026Z,5.63
2022-12-16T13:15:14.318Z,4.70
2022-12-16T13:21:01.238Z,1.88
2022-12-16T13:23:46.496Z,2.65
2022-12-16T13:26:36.110Z,1.83
2022-12-16T13:29:27.674Z,2.97
2022-12-16T13:32:18.919Z,1.75
2022-12-16T13:35:04.067Z,5.68
2022-12-16T13:37:49.327Z,1.33
2022-12-16T13:40:39.433Z,3.08
2022-12-16T13:43:24.618Z,2.03
2022-12-16T13:46:15.749Z,2.53
2022-12-16T13:49:01.174Z,1.63
2022-12-16T13:51:55.452Z,4.75
2022-12-16T13:55:00.354Z,2.78
2022-12-16T13:57:47.400Z,4.90
2022-12-16T14:00:36.711Z,4.97
2022-12-16T14:03:23.326Z,2.88
2022-12-16T14:06:09.572Z,3.03
2022-12-16T14:08:56.154Z,2.10
2022-12-16T14:11:45.396Z,2.67
2022-12-16T14:14:38.094Z,3.50
2022-12-16T14:17:25.634Z,0.93
2022-12-16T14:20:29.605Z,2.38
2022-12-16T14:23:32.396Z,1.13
2022-12-16T14:26:20.512Z,1.35
2022-12-16T14:29:06.191Z,3.42
2022-12-16T14:31:54.943Z,2.47
2022-12-16T14:34:41.700Z,3.88
2022-12-16T14:37:37.610Z,4.35
2022-12-16T14:40:23.687Z,3.53
2022-12-16T14:43:12.934Z,3.08
2022-12-16T14:45:58.461Z,5.07
2022-12-16T14:48:49.546Z,3.03
2022-12-16T14:51:42.153Z,3.83
2022-12-16T14:54:35.252Z,6.13
2022-12-16T14:57:20.448Z,2.45
2022-12-16T15:00:05.729Z,4.07
2022-12-16T15:02:59.260Z,4.00
2022-12-16T15:05:49.521Z,2.38
2022-12-16T15:08:34.646Z,5.20
2022-12-16T15:11:19.880Z,5.50
2022-12-16T15:14:06.869Z,3.08
2022-12-16T15:16:53.758Z,4.60
2022-12-16T15:19:40.057Z,3.85
2022-12-16T15:25:09.714Z,5.20
2022-12-16T15:27:55.803Z,4.68
2022-12-16T15:31:07.438Z,3.55
2022-12-16T15:33:53.884Z,2.63
2022-12-16T15:36:41.808Z,3.03
2022-12-16T15:39:35.918Z,4.53
2022-12-16T15:42:20.718Z,1.25
2022-12-16T15:45:07.135Z,2.97
2022-12-16T15:47:53.385Z,3.47
2022-12-16T15:53:33.597Z,3.88
2022-12-16T15:56:18.788Z,2.38
2022-12-16T15:59:03.774Z,7.93
2022-12-16T16:02:02.934Z,3.22
2022-12-16T16:04:50.066Z,3.90
2022-12-16T16:07:36.518Z,3.00
2022-12-16T16:10:26.917Z,3.85
2022-12-16T16:13:14.785Z,3.47
2022-12-16T16:15:59.668Z,3.92
2022-12-16T16:18:44.824Z,5.38
2022-12-16T16:21:29.809Z,3.83
2022-12-16T16:24:14.947Z,5.47
2022-12-16T16:26:59.762Z,5.40
2022-12-16T16:29:44.859Z,4.47
2022-12-16T16:32:29.987Z,3.83
2022-12-16T16:35:15.213Z,2.63
2022-12-16T16:38:02.708Z,3.78
2022-12-16T16:40:52.273Z,3.85
2022-12-16T16:43:37.312Z,4.40
2022-12-16T16:46:26.400Z,5.47
2022-12-16T16:49:11.552Z,4.20
2022-12-16T16:51:56.709Z,4.05
2022-12-16T16:54:41.598Z,4.30
2022-12-16T16:57:27.191Z,5.30
2022-12-16T17:00:12.276Z,7.20
2022-12-16T17:02:57.454Z,5.03
2022-12-16T17:06:02.399Z,7.63
2022-12-16T17:08:47.476Z,5.95
2022-12-16T17:11:37.872Z,4.72
2022-12-16T17:14:22.929Z,5.70
2022-12-16T17:17:08.118Z,4.93
2022-12-16T17:19:53.233Z,5.00
2022-12-16T17:22:38.510Z,8.23
2022-12-16T17:25:23.882Z,5.65
2022-12-16T17:28:08.811Z,7.30
2022-12-16T17:30:53.960Z,4.88
2022-12-16T17:33:39.056Z,6.53
2022-12-16T17:36:28.554Z,5.72
2022-12-16T17:39:16.712Z,9.63
2022-12-16T17:42:01.734Z,6.90
2022-12-16T17:44:46.873Z,5.47
2022-12-16T17:47:32.083Z,7.50
2022-12-16T17:50:17.418Z,7.80
2022-12-16T17:53:02.567Z,6.07
2022-12-16T17:55:47.739Z,5.18
2022-12-16T17:58:32.842Z,5.72
2022-12-16T18:01:21.715Z,7.70
2022-12-16T18:04:06.890Z,6.95
2022-12-16T18:06:52.044Z,8.45
2022-12-16T18:09:37.084Z,8.70
2022-12-16T18:12:22.341Z,6.82
2022-12-16T18:15:07.479Z,7.82
2022-12-16T18:17:52.600Z,9.88
2022-12-16T18:20:37.768Z,13.07
2022-12-16T18:23:22.631Z,9.85
2022-12-16T18:26:17.174Z,12.07
2022-12-16T18:29:02.523Z,12.98
2022-12-16T18:31:47.663Z,12.50
2022-12-16T18:34:32.547Z,8.43
2022-12-16T18:37:17.701Z,10.90
2022-12-16T18:40:02.753Z,12.60
2022-12-16T18:42:47.604Z,11.75
2022-12-16T18:45:33.196Z,9.13
2022-12-16T18:48:18.207Z,9.23
2022-12-16T18:51:03.328Z,8.57
2022-12-16T18:53:49.984Z,12.35
2022-12-16T18:56:34.980Z,14.35
2022-12-16T18:59:20.010Z,10.07
2022-12-16T19:02:05.428Z,13.57
2022-12-16T19:04:50.412Z,13.48
2022-12-16T19:07:36.376Z,9.68
2022-12-16T19:10:21.584Z,12.60
2022-12-16T19:13:06.361Z,10.32
2022-12-16T19:15:51.521Z,8.52
2022-12-16T19:18:36.583Z,12.15
2022-12-16T19:21:21.867Z,5.05
2022-12-16T19:24:08.004Z,9.00
2022-12-16T19:29:38.404Z,8.82
2022-12-16T19:32:23.504Z,10.98
2022-12-16T19:35:08.797Z,10.52
2022-12-16T19:40:58.351Z,9.82
2022-12-16T19:43:43.298Z,10.60
2022-12-16T19:46:28.160Z,12.32
2022-12-16T19:49:13.022Z,8.75
2022-12-16T19:51:57.799Z,5.53
2022-12-16T19:54:43.240Z,10.68
2022-12-16T19:57:28.337Z,8.83
2022-12-16T20:00:15.626Z,10.35
2022-12-16T20:03:00.724Z,10.77
2022-12-16T20:05:45.707Z,11.25
2022-12-16T20:08:31.821Z,12.18
2022-12-16T20:11:16.877Z,13.90
2022-12-16T20:14:01.637Z,13.20
2022-12-16T20:16:46.823Z,12.35
2022-12-16T20:19:31.884Z,15.68
2022-12-16T20:22:17.011Z,15.13
2022-12-16T20:25:01.969Z,14.65
2022-12-16T20:27:47.012Z,12.60
2022-12-16T20:30:32.248Z,14.30
2022-12-16T20:33:17.389Z,14.43
2022-12-16T20:36:02.310Z,14.93
2022-12-16T20:38:47.473Z,15.30
2022-12-16T20:41:32.724Z,16.67
2022-12-16T20:44:17.442Z,16.27
2022-12-16T20:47:02.661Z,19.02
2022-12-16T20:49:47.785Z,17.67
2022-12-16T20:52:32.990Z,22.02
2022-12-16T20:55:18.191Z,18.15
2022-12-16T20:58:05.201Z,20.33
2022-12-16T21:00:50.481Z,18.15
2022-12-16T21:03:35.828Z,21.10
2022-12-16T21:06:22.308Z,20.70
2022-12-16T21:09:07.419Z,18.65
2022-12-16T21:11:52.382Z,20.83
2022-12-16T21:14:28.346Z,9.88
2022-12-16T21:14:41.283Z,21.63
2022-12-16T21:17:27.927Z,23.40
2022-12-16T21:20:13.049Z,19.75
2022-12-16T21:22:58.180Z,18.52
2022-12-16T21:25:43.028Z,22.00
2022-12-16T21:28:29.332Z,18.83
2022-12-16T21:33:59.483Z,22.30
2022-12-16T21:36:44.718Z,13.18
2022-12-16T21:39:29.734Z,15.50
2022-12-16T21:42:16.436Z,20.25
2022-12-16T21:45:01.384Z,14.50
2022-12-16T21:48:07.490Z,17.02
2022-12-16T21:50:55.536Z,16.45
2022-12-16T21:53:41.578Z,19.25
2022-12-16T21:56:27.238Z,22.27
2022-12-16T21:59:12.395Z,10.55
2022-12-16T22:01:57.536Z,17.80
2022-12-16T22:04:42.490Z,12.43
2022-12-16T22:07:27.340Z,21.73
2022-12-16T22:10:12.483Z,11.85
2022-12-16T22:12:57.462Z,18.63
2022-12-16T22:15:42.508Z,16.60
2022-12-16T22:18:27.633Z,14.30
2022-12-16T22:21:30.898Z,20.85
2022-12-16T22:24:20.548Z,26.23
2022-12-16T22:27:05.686Z,23.95
2022-12-16T22:29:50.614Z,17.83
2022-12-16T22:32:35.650Z,22.30
2022-12-16T22:35:20.841Z,27.02
2022-12-16T22:38:06.927Z,23.38
2022-12-16T22:40:51.808Z,20.55
2022-12-16T22:43:37.148Z,13.57
2022-12-16T22:46:22.245Z,30.03
2022-12-16T22:49:07.514Z,24.27
2022-12-16T22:51:53.960Z,28.50
2022-12-16T22:54:39.212Z,27.98
2022-12-16T22:57:24.339Z,26.90
2022-12-16T23:00:11.811Z,30.92
2022-12-16T23:02:56.935Z,28.10
2022-12-16T23:05:43.294Z,20.25
2022-12-16T23:11:17.285Z,16.63
2022-12-16T23:14:02.488Z,15.85
2022-12-16T23:16:52.570Z,15.13
2022-12-16T23:19:38.795Z,17.75
2022-12-16T23:22:23.764Z,13.48
2022-12-16T23:25:08.759Z,16.55
2022-12-16T23:27:54.854Z,16.90
2022-12-16T23:30:41.954Z,15.23
2022-12-16T23:33:28.248Z,15.88
2022-12-16T23:39:01.338Z,15.20
2022-12-16T23:41:46.468Z,15.48
2022-12-16T23:44:31.619Z,16.85
2022-12-16T23:47:16.852Z,19.23
2022-12-16T23:50:02.046Z,14.13
2022-12-16T23:52:48.439Z,12.75
2022-12-16T23:55:33.588Z,16.10
2022-12-16T23:58:19.515Z,16.27
